Terminal Aerodrome Forecast
Issued by NWS

Home | Current Version | Previous Version | Text Only | Print | Product List | Glossary On
Versions: 1 2 3 4 5 6 7 8 9 10 11 12 13 14 15 16 17 18 19 20 21 22 23 24 25 26 27 28 29 30 31 32
817
FTUS45 KGJT 252116 AAB
TAFEGE
TAF AMD
KEGE 252116Z 2521/2618 16010KT P6SM VCTS SCT100CB BKN150
      TEMPO 2521/2524 VRB12G23KT P6SM -TSRA SCT070CB BKN100
     FM260100 23008KT P6SM FEW100 BKN150
     FM260300 09004KT P6SM BKN150
     FM261000 VRB03KT P6SM BKN150=

USA.gov is the U.S. government's official web portal to all federal, state and local government web resources and services.